Time;durP1;ratioP1;P1;durP2;ratioP2;P2;SDS_P1;SDS_P2;PMS_P1;PMS_P2;Temp;Humidity;BMP_temperature;BMP_pressure;BME280_temperature;BME280_humidity;BME280_pressure;Samples;Min_cycle;Max_cycle;Signal;HPM_P1;HPM_P2
2022/10/11 00:02:10;;;;;;;;;;;21.50;52.10;;;;;;5015835;28;19924;-73
2022/10/11 00:04:36;;;;;;;;;;;21.50;52.00;;;;;;5026945;28;19926;-73
2022/10/11 00:07:01;;;;;;;;;;;21.50;51.90;;;;;;5021106;28;20000;-73
2022/10/11 00:09:27;;;;;;;;;;;21.50;51.90;;;;;;4999514;28;20032;-73
2022/10/11 00:11:55;;;;;;;;;;;21.50;52.10;;;;;;5004790;28;19925;-73
2022/10/11 00:14:21;;;;;;;;;;;21.50;51.90;;;;;;5007173;28;20071;-73
2022/10/11 00:16:46;;;;;;;;;;;21.40;51.90;;;;;;5002736;28;20004;-73
2022/10/11 00:19:12;;;;;;;;;;;21.50;52.00;;;;;;5009344;28;20262;-73
2022/10/11 00:21:37;;;;;;;;;;;21.40;51.80;;;;;;5016760;28;19916;-73
2022/10/11 00:24:03;;;;;;;;;;;21.40;52.00;;;;;;5004390;28;19913;-73
2022/10/11 00:26:28;;;;;;;;;;;21.40;52.00;;;;;;5031743;28;19909;-73
2022/10/11 00:28:54;;;;;;;;;;;21.30;52.00;;;;;;5017314;28;19987;-73
2022/10/11 00:31:20;;;;;;;;;;;21.30;52.60;;;;;;5021983;28;19918;-72
2022/10/11 00:33:45;;;;;;;;;;;21.30;52.00;;;;;;5022004;28;19913;-73
2022/10/11 00:36:13;;;;;;;;;;;21.20;52.00;;;;;;5014951;28;20393;-73
2022/10/11 00:38:38;;;;;;;;;;;21.20;51.90;;;;;;5016850;28;20387;-73
2022/10/11 00:41:04;;;;;;;;;;;21.30;52.00;;;;;;5027713;28;19913;-73
2022/10/11 00:43:30;;;;;;;;;;;21.20;51.90;;;;;;5019718;28;20012;-73
2022/10/11 00:45:55;;;;;;;;;;;21.20;52.00;;;;;;5012895;28;19924;-73
2022/10/11 00:48:41;;;;;;;;;;;21.20;51.90;;;;;;5014321;28;19917;-73
2022/10/11 00:51:11;;;;;;;;;;;21.20;51.90;;;;;;5010435;28;19916;-73
2022/10/11 00:53:37;;;;;;;;;;;21.20;51.90;;;;;;5018820;28;19920;-74
2022/10/11 00:56:04;;;;;;;;;;;21.20;51.90;;;;;;5020116;28;20420;-73
2022/10/11 00:58:30;;;;;;;;;;;21.20;51.90;;;;;;5013905;28;19963;-74
2022/10/11 01:00:55;;;;;;;;;;;21.20;51.90;;;;;;5015553;28;20383;-73
2022/10/11 01:03:21;;;;;;;;;;;21.10;51.90;;;;;;5014697;28;19917;-73
2022/10/11 01:05:46;;;;;;;;;;;21.10;51.90;;;;;;5026805;28;20377;-73
2022/10/11 01:08:12;;;;;;;;;;;21.10;51.90;;;;;;5020013;28;19919;-74
2022/10/11 01:10:37;;;;;;;;;;;21.10;51.90;;;;;;5012562;28;19917;-73
2022/10/11 01:13:05;;;;;;;;;;;21.10;51.90;;;;;;5017765;28;20359;-73
2022/10/11 01:15:41;;;;;;;;;;;21.10;51.80;;;;;;5024191;28;19921;-73
2022/10/11 01:18:13;;;;;;;;;;;21.10;51.90;;;;;;5013258;28;20284;-73
2022/10/11 01:20:47;;;;;;;;;;;21.10;51.90;;;;;;5012448;28;20269;-73
2022/10/11 01:23:22;;;;;;;;;;;21.10;51.80;;;;;;5015671;28;19921;-73
2022/10/11 01:25:55;;;;;;;;;;;21.10;51.70;;;;;;5016328;28;19921;-73
2022/10/11 01:28:36;;;;;;;;;;;21.10;51.70;;;;;;5023842;28;19923;-73
2022/10/11 01:31:03;;;;;;;;;;;21.20;51.70;;;;;;5028647;28;19913;-73
2022/10/11 01:33:38;;;;;;;;;;;21.40;51.50;;;;;;5014641;28;19920;-73
2022/10/11 01:36:06;;;;;;;;;;;21.60;51.10;;;;;;5014941;28;19964;-73
2022/10/11 01:38:33;;;;;;;;;;;21.80;50.70;;;;;;5011842;28;19917;-73
2022/10/11 01:41:02;;;;;;;;;;;22.00;50.30;;;;;;5012711;28;20305;-73
2022/10/11 01:43:28;;;;;;;;;;;22.10;50.00;;;;;;5019920;28;20296;-73
2022/10/11 01:45:54;;;;;;;;;;;22.30;49.80;;;;;;5018496;28;19917;-73
2022/10/11 01:48:20;;;;;;;;;;;22.40;49.40;;;;;;5007644;28;19921;-73
2022/10/11 01:50:47;;;;;;;;;;;22.50;49.30;;;;;;5016084;28;19972;-74
2022/10/11 01:53:18;;;;;;;;;;;22.50;49.10;;;;;;5026242;28;19964;-73
2022/10/11 01:55:51;;;;;;;;;;;22.50;49.00;;;;;;5017282;28;19912;-74
2022/10/11 01:58:23;;;;;;;;;;;22.50;49.00;;;;;;5006383;28;20305;-73
2022/10/11 02:00:52;;;;;;;;;;;22.40;49.00;;;;;;5026969;28;19917;-74
2022/10/11 02:03:20;;;;;;;;;;;22.40;49.20;;;;;;5021166;28;19917;-73
2022/10/11 02:05:55;;;;;;;;;;;22.40;49.30;;;;;;5034301;28;19921;-73
2022/10/11 02:08:39;;;;;;;;;;;22.40;49.20;;;;;;5050035;28;20000;-74
2022/10/11 02:11:07;;;;;;;;;;;22.40;49.10;;;;;;5049371;28;19990;-73
2022/10/11 02:13:35;;;;;;;;;;;22.50;49.10;;;;;;5031745;28;19913;-73
2022/10/11 02:16:01;;;;;;;;;;;22.40;49.10;;;;;;5033599;28;20387;-73
2022/10/11 02:18:28;;;;;;;;;;;22.40;49.20;;;;;;5032418;28;19912;-74
2022/10/11 02:20:54;;;;;;;;;;;22.40;49.20;;;;;;5028835;28;19921;-73
2022/10/11 02:23:21;;;;;;;;;;;22.40;49.20;;;;;;5025812;28;20299;-74
2022/10/11 02:25:46;;;;;;;;;;;22.50;49.10;;;;;;5039406;28;19917;-74
2022/10/11 02:28:16;;;;;;;;;;;22.60;49.00;;;;;;5026881;28;19923;-73
2022/10/11 02:30:41;;;;;;;;;;;22.60;48.80;;;;;;5001271;28;19920;-73
2022/10/11 02:33:07;;;;;;;;;;;22.70;48.70;;;;;;5031466;28;20368;-73
2022/10/11 02:35:34;;;;;;;;;;;22.80;48.60;;;;;;5049993;28;20355;-74
2022/10/11 02:38:04;;;;;;;;;;;22.80;48.50;;;;;;5050762;28;20437;-74
2022/10/11 02:40:36;;;;;;;;;;;22.90;48.40;;;;;;5049019;28;19963;-73
2022/10/11 02:43:07;;;;;;;;;;;22.90;48.30;;;;;;5032829;28;19978;-74
2022/10/11 02:45:51;;;;;;;;;;;22.90;48.30;;;;;;5032413;28;20054;-73
2022/10/11 02:48:17;;;;;;;;;;;22.90;48.10;;;;;;5045597;28;19912;-73
2022/10/11 02:50:42;;;;;;;;;;;23.00;48.10;;;;;;5049082;28;19919;-73
2022/10/11 02:53:08;;;;;;;;;;;23.00;48.10;;;;;;5036541;28;19913;-73
2022/10/11 02:55:33;;;;;;;;;;;22.90;48.10;;;;;;5051637;28;20346;-73
2022/10/11 02:57:59;;;;;;;;;;;22.80;48.20;;;;;;5035919;28;19917;-73
2022/10/11 03:00:24;;;;;;;;;;;22.70;48.40;;;;;;5053027;28;19913;-73
2022/10/11 03:02:49;;;;;;;;;;;22.60;48.50;;;;;;5029932;28;19917;-72
2022/10/11 03:05:15;;;;;;;;;;;22.60;48.60;;;;;;5040354;28;20027;-73
2022/10/11 03:07:40;;;;;;;;;;;22.70;48.70;;;;;;5045333;28;19963;-73
2022/10/11 03:10:06;;;;;;;;;;;22.70;48.50;;;;;;5013604;28;19920;-73
2022/10/11 03:12:31;;;;;;;;;;;22.80;48.40;;;;;;5026200;28;19919;-73
2022/10/11 03:14:57;;;;;;;;;;;22.80;48.20;;;;;;5049761;28;20019;-73
2022/10/11 03:17:23;;;;;;;;;;;22.80;48.30;;;;;;5033955;28;19919;-73
2022/10/11 03:19:48;;;;;;;;;;;22.80;48.30;;;;;;5036578;28;19921;-73
2022/10/11 03:22:14;;;;;;;;;;;22.80;48.30;;;;;;5052262;28;20361;-73
2022/10/11 03:24:39;;;;;;;;;;;22.80;48.40;;;;;;5034820;28;20387;-73
2022/10/11 03:27:04;;;;;;;;;;;22.80;48.30;;;;;;5051629;28;20329;-73
2022/10/11 03:29:30;;;;;;;;;;;22.80;48.20;;;;;;5046618;28;20350;-73
2022/10/11 03:31:56;;;;;;;;;;;22.90;48.10;;;;;;5046824;28;20272;-73
2022/10/11 03:34:21;;;;;;;;;;;22.90;48.00;;;;;;5053682;28;20019;-73
2022/10/11 03:36:46;;;;;;;;;;;22.90;48.00;;;;;;5053150;28;19977;-74
2022/10/11 03:39:12;;;;;;;;;;;22.90;48.10;;;;;;5033077;28;20329;-74
2022/10/11 03:41:38;;;;;;;;;;;22.80;48.10;;;;;;5047608;28;20401;-73
2022/10/11 03:44:03;;;;;;;;;;;22.80;48.20;;;;;;5052881;28;19962;-73
2022/10/11 03:46:28;;;;;;;;;;;22.70;48.30;;;;;;5044063;28;19920;-73
2022/10/11 03:48:54;;;;;;;;;;;22.70;48.30;;;;;;5013389;28;20380;-73
2022/10/11 03:51:19;;;;;;;;;;;22.70;48.30;;;;;;5033995;28;20070;-74
2022/10/11 03:53:45;;;;;;;;;;;22.80;48.40;;;;;;5019270;28;19909;-74
2022/10/11 03:56:10;;;;;;;;;;;22.80;48.30;;;;;;5052294;28;19917;-73
2022/10/11 03:58:36;;;;;;;;;;;22.80;48.30;;;;;;5053977;28;19952;-73
2022/10/11 04:01:01;;;;;;;;;;;22.80;48.20;;;;;;5033817;28;19916;-73
2022/10/11 04:03:27;;;;;;;;;;;22.80;48.10;;;;;;5046657;28;19932;-73
2022/10/11 04:05:52;;;;;;;;;;;22.80;48.00;;;;;;5027266;28;19963;-73
2022/10/11 04:08:18;;;;;;;;;;;22.90;48.00;;;;;;5031050;28;19917;-73
2022/10/11 04:10:43;;;;;;;;;;;22.90;48.00;;;;;;5045250;28;19933;-73
2022/10/11 04:13:09;;;;;;;;;;;22.90;48.00;;;;;;5048906;28;20415;-73
2022/10/11 04:15:35;;;;;;;;;;;22.90;47.90;;;;;;5030224;28;19927;-73
2022/10/11 04:18:01;;;;;;;;;;;22.90;47.90;;;;;;5030654;28;20431;-73
2022/10/11 04:20:26;;;;;;;;;;;22.90;47.80;;;;;;5027473;28;19917;-73
2022/10/11 04:22:52;;;;;;;;;;;22.90;47.90;;;;;;5051061;28;19924;-73
2022/10/11 04:25:17;;;;;;;;;;;22.90;47.90;;;;;;5050986;28;19924;-73
2022/10/11 04:27:43;;;;;;;;;;;22.80;47.90;;;;;;5048036;28;20356;-73
2022/10/11 04:30:10;;;;;;;;;;;22.80;48.00;;;;;;5052708;28;20341;-73
2022/10/11 04:32:35;;;;;;;;;;;22.70;48.00;;;;;;5033247;28;20003;-73
2022/10/11 04:35:01;;;;;;;;;;;22.60;48.10;;;;;;5050100;28;20020;-73
2022/10/11 04:37:26;;;;;;;;;;;22.60;48.30;;;;;;5046302;28;19913;-73
2022/10/11 04:39:51;;;;;;;;;;;22.60;48.30;;;;;;5033973;28;19919;-73
2022/10/11 04:42:17;;;;;;;;;;;22.60;48.30;;;;;;5050423;28;19970;-73
2022/10/11 04:44:42;;;;;;;;;;;22.60;48.30;;;;;;5051233;28;20304;-73
2022/10/11 04:47:08;;;;;;;;;;;22.70;48.10;;;;;;5049413;28;20292;-73
2022/10/11 04:49:33;;;;;;;;;;;22.80;48.00;;;;;;5030775;28;20284;-73
2022/10/11 04:51:59;;;;;;;;;;;22.80;47.90;;;;;;5027799;28;20007;-73
2022/10/11 04:54:24;;;;;;;;;;;22.80;47.80;;;;;;5051174;28;19908;-73
2022/10/11 04:56:49;;;;;;;;;;;22.90;47.80;;;;;;5032388;28;19917;-73
2022/10/11 04:59:15;;;;;;;;;;;22.80;47.70;;;;;;5052134;28;20072;-73
2022/10/11 05:01:40;;;;;;;;;;;22.90;47.70;;;;;;5031761;28;19924;-73
2022/10/11 05:04:06;;;;;;;;;;;22.90;47.70;;;;;;5046920;28;19956;-73
2022/10/11 05:06:31;;;;;;;;;;;22.80;47.60;;;;;;5015257;28;19925;-73
2022/10/11 05:08:57;;;;;;;;;;;22.80;47.60;;;;;;5027416;28;19924;-73
2022/10/11 05:11:22;;;;;;;;;;;22.80;47.60;;;;;;5033449;28;20380;-73
2022/10/11 05:13:48;;;;;;;;;;;22.80;47.70;;;;;;5049390;28;19920;-73
2022/10/11 05:16:13;;;;;;;;;;;22.80;47.70;;;;;;5049282;28;19927;-73
2022/10/11 05:18:39;;;;;;;;;;;22.80;47.70;;;;;;5052411;28;19909;-73
2022/10/11 05:21:05;;;;;;;;;;;22.80;47.70;;;;;;5051031;28;20366;-73
2022/10/11 05:23:31;;;;;;;;;;;22.70;47.70;;;;;;5028638;28;19931;-72
2022/10/11 05:25:57;;;;;;;;;;;22.70;47.90;;;;;;5029963;28;19917;-73
2022/10/11 05:28:22;;;;;;;;;;;22.70;47.90;;;;;;5050485;28;19959;-73
2022/10/11 05:30:48;;;;;;;;;;;22.60;48.60;;;;;;5032546;28;19917;-73
2022/10/11 05:33:13;;;;;;;;;;;22.50;48.10;;;;;;5032859;28;19917;-73
2022/10/11 05:35:39;;;;;;;;;;;22.50;48.20;;;;;;5017868;28;19909;-73
2022/10/11 05:38:04;;;;;;;;;;;22.40;48.30;;;;;;5033019;28;19921;-73
2022/10/11 05:40:30;;;;;;;;;;;22.40;48.40;;;;;;5044811;28;19913;-73
2022/10/11 05:42:55;;;;;;;;;;;22.40;48.40;;;;;;5031980;28;19980;-72
2022/10/11 05:45:21;;;;;;;;;;;22.40;48.30;;;;;;5051641;28;19916;-72
2022/10/11 05:47:46;;;;;;;;;;;22.50;48.20;;;;;;5049272;28;19919;-73
2022/10/11 05:50:12;;;;;;;;;;;22.60;48.10;;;;;;5048101;28;20389;-72
2022/10/11 05:52:37;;;;;;;;;;;22.60;47.90;;;;;;5030348;28;19960;-72
2022/10/11 05:55:03;;;;;;;;;;;22.70;47.90;;;;;;5044369;28;19912;-73
2022/10/11 05:57:28;;;;;;;;;;;22.70;47.70;;;;;;5046375;28;20072;-73
2022/10/11 05:59:54;;;;;;;;;;;22.80;47.60;;;;;;5024510;28;19913;-72
2022/10/11 06:02:19;;;;;;;;;;;22.80;47.50;;;;;;5017677;28;20427;-73
2022/10/11 06:04:44;;;;;;;;;;;22.80;47.50;;;;;;5024452;28;20400;-73
2022/10/11 06:07:10;;;;;;;;;;;22.80;47.40;;;;;;5024422;28;20240;-72
2022/10/11 06:09:35;;;;;;;;;;;22.90;47.50;;;;;;5025168;28;19914;-73
2022/10/11 06:12:01;;;;;;;;;;;22.80;47.40;;;;;;5026086;28;19924;-73
2022/10/11 06:14:26;;;;;;;;;;;22.80;47.40;;;;;;5024078;28;19917;-73
2022/10/11 06:16:52;;;;;;;;;;;22.90;47.50;;;;;;5029414;28;19917;-73
2022/10/11 06:19:17;;;;;;;;;;;22.80;47.40;;;;;;5029976;28;19909;-73
2022/10/11 06:21:44;;;;;;;;;;;22.80;47.50;;;;;;5013486;28;19909;-73
2022/10/11 06:24:11;;;;;;;;;;;22.80;47.70;;;;;;5031969;28;19913;-73
2022/10/11 06:26:36;;;;;;;;;;;22.70;47.80;;;;;;5034786;28;19913;-73
2022/10/11 06:29:01;;;;;;;;;;;22.60;47.90;;;;;;5033534;28;19921;-73
2022/10/11 06:31:27;;;;;;;;;;;22.60;48.00;;;;;;5026407;28;19978;-73
2022/10/11 06:33:52;;;;;;;;;;;22.60;48.10;;;;;;5029543;28;19964;-73
2022/10/11 06:36:18;;;;;;;;;;;22.60;48.10;;;;;;5030597;28;20028;-73
2022/10/11 06:38:43;;;;;;;;;;;22.60;48.20;;;;;;5027034;28;19920;-73
2022/10/11 06:41:12;;;;;;;;;;;22.50;48.20;;;;;;5032123;28;19914;-72
2022/10/11 06:43:37;;;;;;;;;;;22.50;48.30;;;;;;5035431;28;20052;-72
2022/10/11 06:46:03;;;;;;;;;;;22.50;48.40;;;;;;5034620;28;20399;-72
2022/10/11 06:48:30;;;;;;;;;;;22.50;48.30;;;;;;5033174;28;20354;-72
2022/10/11 06:50:58;;;;;;;;;;;22.60;48.30;;;;;;5032219;28;20292;-73
2022/10/11 06:53:24;;;;;;;;;;;22.70;48.10;;;;;;5031840;28;20530;-73
2022/10/11 06:55:50;;;;;;;;;;;22.70;48.00;;;;;;5026284;28;19928;-72
2022/10/11 06:58:15;;;;;;;;;;;22.70;47.90;;;;;;5029807;28;20026;-72
2022/10/11 07:00:40;;;;;;;;;;;22.60;48.00;;;;;;5027275;28;20291;-72
2022/10/11 07:03:06;;;;;;;;;;;22.50;48.10;;;;;;5031483;28;19909;-72
2022/10/11 07:05:31;;;;;;;;;;;22.50;48.30;;;;;;5028983;28;20021;-72
2022/10/11 07:07:57;;;;;;;;;;;22.50;48.30;;;;;;5013574;28;19921;-73
2022/10/11 07:10:22;;;;;;;;;;;22.50;48.30;;;;;;5009805;28;20009;-73
2022/10/11 07:12:48;;;;;;;;;;;22.50;48.30;;;;;;5013253;28;19913;-73
2022/10/11 07:15:13;;;;;;;;;;;22.50;48.40;;;;;;5015888;28;20285;-73
2022/10/11 07:17:39;;;;;;;;;;;22.50;48.70;;;;;;5017462;28;20355;-72
2022/10/11 07:20:05;;;;;;;;;;;22.40;48.70;;;;;;5001776;28;20008;-74
2022/10/11 07:22:30;;;;;;;;;;;22.40;48.70;;;;;;5013896;28;20296;-73
2022/10/11 07:24:56;;;;;;;;;;;22.40;48.70;;;;;;5024041;28;19917;-73
2022/10/11 07:27:21;;;;;;;;;;;22.40;48.70;;;;;;5020873;28;19969;-73
2022/10/11 07:29:47;;;;;;;;;;;22.50;48.60;;;;;;5024858;28;19922;-73
2022/10/11 07:32:12;;;;;;;;;;;22.50;48.50;;;;;;5032403;28;19909;-73
2022/10/11 07:34:38;;;;;;;;;;;22.60;48.30;;;;;;5031970;28;19988;-73
2022/10/11 07:37:03;;;;;;;;;;;22.60;48.30;;;;;;5030091;28;19932;-73
2022/10/11 07:39:30;;;;;;;;;;;22.70;48.30;;;;;;5023680;28;19940;-74
2022/10/11 07:41:55;;;;;;;;;;;22.60;48.10;;;;;;5022359;28;20000;-74
2022/10/11 07:44:21;;;;;;;;;;;22.60;48.20;;;;;;5012748;28;20036;-73
2022/10/11 07:46:46;;;;;;;;;;;22.60;48.30;;;;;;5018162;28;19917;-73
2022/10/11 07:49:12;;;;;;;;;;;22.50;48.40;;;;;;5021797;28;19921;-73
2022/10/11 07:51:37;;;;;;;;;;;22.50;48.50;;;;;;5028721;28;19917;-72
2022/10/11 07:54:03;;;;;;;;;;;22.50;48.60;;;;;;5026047;28;19917;-73
2022/10/11 07:56:28;;;;;;;;;;;22.40;48.40;;;;;;5030967;28;19959;-73
2022/10/11 07:58:54;;;;;;;;;;;22.40;48.50;;;;;;5015855;28;19913;-73
2022/10/11 08:01:20;;;;;;;;;;;22.50;48.70;;;;;;5014575;28;19913;-74
2022/10/11 08:03:46;;;;;;;;;;;22.50;48.70;;;;;;5014728;28;20267;-74
2022/10/11 08:06:12;;;;;;;;;;;22.50;48.60;;;;;;5049105;28;20012;-73
2022/10/11 08:08:37;;;;;;;;;;;22.60;48.60;;;;;;5057973;28;19917;-74
2022/10/11 08:11:03;;;;;;;;;;;22.60;48.50;;;;;;5056916;28;19909;-74
2022/10/11 08:13:28;;;;;;;;;;;22.60;48.40;;;;;;5033665;28;19952;-74
2022/10/11 08:15:54;;;;;;;;;;;22.60;49.20;;;;;;5051802;28;19912;-74
2022/10/11 08:18:19;;;;;;;;;;;22.50;48.60;;;;;;5051182;28;19992;-74
2022/10/11 08:20:45;;;;;;;;;;;22.50;49.00;;;;;;5049367;28;19917;-74
2022/10/11 08:23:10;;;;;;;;;;;22.40;49.10;;;;;;5027053;28;19917;-74
2022/10/11 08:25:39;;;;;;;;;;;22.40;49.20;;;;;;5031094;28;19917;-74
2022/10/11 08:28:05;;;;;;;;;;;22.30;49.10;;;;;;5049137;28;19913;-74
2022/10/11 08:30:30;;;;;;;;;;;22.30;50.00;;;;;;5050019;28;19920;-74
2022/10/11 08:32:56;;;;;;;;;;;22.30;49.40;;;;;;5031618;28;20418;-74
2022/10/11 08:35:21;;;;;;;;;;;22.30;49.30;;;;;;5030038;28;19921;-74
2022/10/11 08:37:47;;;;;;;;;;;22.30;49.30;;;;;;5049217;28;19924;-74
2022/10/11 08:40:14;;;;;;;;;;;22.30;49.30;;;;;;5052207;28;19924;-74
2022/10/11 08:43:09;;;;;;;;;;;22.30;49.30;;;;;;5034193;28;20274;-73
2022/10/11 08:45:36;;;;;;;;;;;22.20;49.40;;;;;;5037096;28;19960;-73
2022/10/11 08:48:12;;;;;;;;;;;22.10;49.50;;;;;;5030414;28;20336;-74
2022/10/11 08:50:38;;;;;;;;;;;22.10;49.60;;;;;;5032271;28;19924;-74
2022/10/11 08:53:05;;;;;;;;;;;22.10;49.60;;;;;;5032862;28;20319;-74
2022/10/11 08:55:37;;;;;;;;;;;22.00;49.80;;;;;;5029006;28;19909;-74
2022/10/11 08:58:02;;;;;;;;;;;22.00;49.90;;;;;;5031061;28;19951;-74
2022/10/11 09:00:29;;;;;;;;;;;21.90;50.00;;;;;;5050924;28;19912;-74
2022/10/11 09:03:13;;;;;;;;;;;21.90;50.10;;;;;;5047874;28;19916;-74
2022/10/11 09:05:48;;;;;;;;;;;21.90;50.00;;;;;;5049673;28;19928;-74
2022/10/11 09:08:22;;;;;;;;;;;21.90;50.00;;;;;;5031135;28;19976;-74
2022/10/11 09:10:54;;;;;;;;;;;21.90;50.10;;;;;;5049672;28;19920;-75
2022/10/11 09:13:40;;;;;;;;;;;21.90;50.20;;;;;;5031516;28;20431;-74
2022/10/11 09:16:15;;;;;;;;;;;21.80;50.20;;;;;;5040855;28;19913;-74
2022/10/11 09:18:45;;;;;;;;;;;21.70;50.50;;;;;;5016973;28;20291;-74
2022/10/11 09:21:16;;;;;;;;;;;21.80;50.60;;;;;;5033780;28;20295;-73
2022/10/11 09:24:00;;;;;;;;;;;21.80;50.60;;;;;;5050304;28;20043;-73
2022/10/11 09:26:30;;;;;;;;;;;21.80;50.40;;;;;;5043115;28;20288;-74
2022/10/11 09:29:14;;;;;;;;;;;21.70;50.40;;;;;;5031956;28;20062;-73
2022/10/11 09:31:39;;;;;;;;;;;21.80;50.50;;;;;;5046803;28;19967;-74
2022/10/11 09:34:09;;;;;;;;;;;21.70;50.50;;;;;;5031545;28;20326;-73
2022/10/11 09:36:44;;;;;;;;;;;21.80;50.50;;;;;;5046470;28;19917;-73
2022/10/11 09:39:17;;;;;;;;;;;21.80;50.40;;;;;;5044450;28;19982;-73
2022/10/11 09:41:57;;;;;;;;;;;21.80;50.40;;;;;;5029360;28;19916;-73
2022/10/11 09:44:23;;;;;;;;;;;21.80;50.50;;;;;;5042650;28;20012;-74
2022/10/11 09:46:49;;;;;;;;;;;21.70;50.50;;;;;;5043469;28;19918;-73
2022/10/11 09:49:14;;;;;;;;;;;21.70;50.60;;;;;;5026004;28;19913;-73
2022/10/11 09:51:40;;;;;;;;;;;21.70;50.60;;;;;;5025833;28;20830;-74
2022/10/11 09:54:06;;;;;;;;;;;21.60;50.60;;;;;;5028001;28;19965;-73
2022/10/11 09:56:32;;;;;;;;;;;21.60;50.80;;;;;;5044030;28;19917;-73
2022/10/11 09:59:08;;;;;;;;;;;21.70;50.90;;;;;;5026966;28;19917;-73
2022/10/11 10:01:33;;;;;;;;;;;21.70;50.80;;;;;;5046237;28;19948;-74
2022/10/11 10:04:03;;;;;;;;;;;21.60;50.70;;;;;;5032177;28;19948;-73
2022/10/11 10:06:29;;;;;;;;;;;21.60;50.70;;;;;;5008759;28;20008;-74
2022/10/11 10:08:56;;;;;;;;;;;21.70;50.90;;;;;;5011848;28;20391;-73
2022/10/11 10:11:21;;;;;;;;;;;21.60;50.80;;;;;;5006413;28;19970;-73
2022/10/11 10:13:50;;;;;;;;;;;21.70;50.90;;;;;;5009430;28;20319;-73
2022/10/11 10:16:19;;;;;;;;;;;21.70;50.70;;;;;;5009864;28;19977;-73
2022/10/11 10:18:55;;;;;;;;;;;21.70;50.70;;;;;;5008150;28;19917;-73
2022/10/11 10:21:26;;;;;;;;;;;21.70;50.70;;;;;;4991773;28;19913;-74
2022/10/11 10:23:53;;;;;;;;;;;21.70;50.70;;;;;;5009099;28;20377;-73
2022/10/11 10:26:19;;;;;;;;;;;21.70;50.70;;;;;;5012362;28;19924;-74
2022/10/11 10:29:02;;;;;;;;;;;21.70;50.70;;;;;;5005565;28;20552;-74
2022/10/11 10:31:29;;;;;;;;;;;21.70;50.80;;;;;;5008001;28;20870;-74
2022/10/11 10:33:54;;;;;;;;;;;21.70;50.90;;;;;;5007370;28;19914;-74
2022/10/11 10:36:25;;;;;;;;;;;21.70;50.90;;;;;;5011260;28;19920;-73
2022/10/11 10:38:54;;;;;;;;;;;21.70;50.80;;;;;;5007635;28;19924;-74
2022/10/11 10:41:20;;;;;;;;;;;21.70;50.90;;;;;;5008200;28;20012;-73
2022/10/11 10:43:54;;;;;;;;;;;21.70;51.00;;;;;;5006396;28;20414;-74
2022/10/11 10:46:25;;;;;;;;;;;21.70;50.90;;;;;;5004764;28;19936;-74
2022/10/11 10:48:57;;;;;;;;;;;21.70;50.90;;;;;;5006665;28;20028;-73
2022/10/11 10:51:27;;;;;;;;;;;21.70;50.80;;;;;;5012688;28;19921;-74
2022/10/11 10:53:56;;;;;;;;;;;21.70;50.70;;;;;;5009367;28;19921;-73
2022/10/11 10:56:23;;;;;;;;;;;21.80;50.70;;;;;;5009917;28;19921;-74
2022/10/11 10:58:52;;;;;;;;;;;21.80;50.90;;;;;;5007766;28;20372;-74
2022/10/11 11:01:25;;;;;;;;;;;21.70;50.90;;;;;;4990349;28;19967;-73
2022/10/11 11:03:56;;;;;;;;;;;21.70;50.90;;;;;;5002325;28;19924;-73
2022/10/11 11:06:25;;;;;;;;;;;21.70;50.90;;;;;;5026155;28;19926;-73
2022/10/11 11:08:50;;;;;;;;;;;21.70;50.90;;;;;;5029067;28;19917;-73
2022/10/11 11:11:19;;;;;;;;;;;21.80;51.00;;;;;;5025632;28;19913;-73
2022/10/11 11:13:44;;;;;;;;;;;21.70;51.70;;;;;;5025628;28;19925;-73
2022/10/11 11:16:10;;;;;;;;;;;21.70;51.20;;;;;;5030731;28;19913;-74
2022/10/11 11:18:38;;;;;;;;;;;21.70;51.30;;;;;;5026556;28;19968;-73
2022/10/11 11:21:07;;;;;;;;;;;21.70;51.40;;;;;;5024261;28;20373;-73
2022/10/11 11:23:36;;;;;;;;;;;21.80;51.40;;;;;;5028039;28;19917;-74
2022/10/11 11:26:10;;;;;;;;;;;21.80;51.20;;;;;;5023496;28;19956;-74
2022/10/11 11:28:36;;;;;;;;;;;21.90;51.20;;;;;;5024720;28;19917;-73
2022/10/11 11:31:14;;;;;;;;;;;22.00;50.90;;;;;;5031543;28;19914;-73
2022/10/11 11:33:53;;;;;;;;;;;22.10;50.70;;;;;;5027179;28;20361;-73
2022/10/11 11:36:39;;;;;;;;;;;22.20;50.50;;;;;;5027167;28;19921;-73
2022/10/11 11:39:05;;;;;;;;;;;22.20;50.40;;;;;;5024129;28;19913;-74
2022/10/11 11:41:43;;;;;;;;;;;22.20;50.50;;;;;;5022343;28;20345;-73
2022/10/11 11:44:09;;;;;;;;;;;22.20;50.50;;;;;;5025275;28;20377;-73
2022/10/11 11:46:50;;;;;;;;;;;22.10;50.60;;;;;;5019377;28;20035;-73
2022/10/11 11:49:16;;;;;;;;;;;22.10;50.70;;;;;;5025126;28;19913;-73
2022/10/11 11:51:43;;;;;;;;;;;22.10;50.70;;;;;;5022118;28;19995;-73
2022/10/11 11:54:14;;;;;;;;;;;22.00;50.70;;;;;;5024710;28;19999;-73
2022/10/11 11:56:46;;;;;;;;;;;22.00;50.70;;;;;;5023791;28;20332;-73
2022/10/11 11:59:16;;;;;;;;;;;22.00;50.80;;;;;;5028277;28;19919;-74
2022/10/11 12:01:43;;;;;;;;;;;22.00;50.80;;;;;;5025837;28;19913;-72
2022/10/11 12:04:24;;;;;;;;;;;22.10;50.90;;;;;;5027619;28;20380;-72
2022/10/11 12:06:59;;;;;;;;;;;22.00;50.90;;;;;;5032828;28;19921;-73
2022/10/11 12:09:24;;;;;;;;;;;22.00;50.80;;;;;;5046003;28;19913;-74
2022/10/11 12:11:51;;;;;;;;;;;22.10;50.90;;;;;;5043881;28;19969;-73
2022/10/11 12:14:23;;;;;;;;;;;22.10;50.80;;;;;;5028712;28;19913;-74
2022/10/11 12:17:07;;;;;;;;;;;22.10;50.90;;;;;;5054367;28;19963;-73
2022/10/11 12:19:33;;;;;;;;;;;22.10;50.80;;;;;;5048165;28;19991;-73
2022/10/11 12:22:37;;;;;;;;;;;22.10;50.70;;;;;;5025463;28;19945;-73
2022/10/11 12:25:09;;;;;;;;;;;22.10;50.60;;;;;;5021622;28;19968;-73
2022/10/11 12:27:41;;;;;;;;;;;22.10;50.60;;;;;;5023205;28;19913;-73
2022/10/11 12:30:27;;;;;;;;;;;22.20;50.60;;;;;;5027303;28;21409;-73
2022/10/11 12:32:53;;;;;;;;;;;22.20;50.50;;;;;;5048592;28;19916;-73
2022/10/11 12:35:31;;;;;;;;;;;22.30;50.50;;;;;;5028325;28;19913;-74
2022/10/11 12:38:02;;;;;;;;;;;22.30;50.40;;;;;;5046958;28;19913;-74
2022/10/11 12:40:55;;;;;;;;;;;22.30;50.30;;;;;;5044257;28;19916;-73
2022/10/11 12:43:25;;;;;;;;;;;22.40;50.30;;;;;;5049178;28;19990;-73
2022/10/11 12:45:50;;;;;;;;;;;22.40;50.20;;;;;;5044949;28;19921;-73
2022/10/11 12:48:25;;;;;;;;;;;22.50;50.10;;;;;;5012219;28;20288;-73
2022/10/11 12:50:56;;;;;;;;;;;22.50;50.00;;;;;;5045648;28;19908;-74
2022/10/11 12:53:28;;;;;;;;;;;22.50;50.00;;;;;;5029510;28;19944;-73
2022/10/11 12:56:00;;;;;;;;;;;22.40;50.00;;;;;;5040132;28;19952;-74
2022/10/11 12:58:37;;;;;;;;;;;22.40;50.10;;;;;;5046688;28;20371;-73
2022/10/11 13:01:02;;;;;;;;;;;22.40;50.10;;;;;;5051565;28;19928;-73
2022/10/11 13:03:28;;;;;;;;;;;22.40;50.10;;;;;;5047300;28;20715;-73
2022/10/11 13:05:55;;;;;;;;;;;22.40;50.20;;;;;;5047205;28;20299;-73
2022/10/11 13:08:23;;;;;;;;;;;22.40;50.20;;;;;;5028827;28;19921;-73
2022/10/11 13:10:48;;;;;;;;;;;22.40;50.20;;;;;;5030880;28;20379;-73
2022/10/11 13:13:27;;;;;;;;;;;22.40;50.20;;;;;;5044242;28;20024;-73
2022/10/11 13:15:53;;;;;;;;;;;22.50;50.20;;;;;;5009570;28;19921;-73
2022/10/11 13:18:20;;;;;;;;;;;22.50;50.00;;;;;;5044680;28;19974;-74
2022/10/11 13:20:46;;;;;;;;;;;22.60;50.00;;;;;;5027438;28;19956;-74
2022/10/11 13:23:21;;;;;;;;;;;22.60;49.90;;;;;;5044835;28;19967;-73
2022/10/11 13:25:47;;;;;;;;;;;22.60;49.80;;;;;;5043736;28;20006;-74
2022/10/11 13:28:12;;;;;;;;;;;22.60;49.80;;;;;;5031364;28;19955;-73
2022/10/11 13:30:38;;;;;;;;;;;22.70;49.80;;;;;;5009595;28;20018;-73
2022/10/11 13:33:04;;;;;;;;;;;22.70;49.80;;;;;;5027040;28;19913;-73
2022/10/11 13:35:36;;;;;;;;;;;22.80;49.80;;;;;;5028774;28;19920;-73
2022/10/11 13:38:02;;;;;;;;;;;22.80;49.70;;;;;;5015109;28;19924;-74
2022/10/11 13:40:27;;;;;;;;;;;22.80;49.70;;;;;;5026140;28;19916;-74
2022/10/11 13:42:53;;;;;;;;;;;22.90;49.70;;;;;;5012251;28;19922;-73
2022/10/11 13:45:22;;;;;;;;;;;22.80;49.70;;;;;;5028584;28;19917;-74
2022/10/11 13:47:48;;;;;;;;;;;22.80;49.70;;;;;;5041620;28;19928;-73
2022/10/11 13:50:13;;;;;;;;;;;22.80;49.80;;;;;;5038350;28;20281;-73
2022/10/11 13:52:55;;;;;;;;;;;22.80;49.80;;;;;;5037436;28;19913;-73
2022/10/11 13:55:22;;;;;;;;;;;22.80;49.80;;;;;;5027433;28;20284;-73
2022/10/11 13:57:47;;;;;;;;;;;22.80;49.90;;;;;;5041019;28;19920;-73
2022/10/11 14:00:13;;;;;;;;;;;22.80;49.90;;;;;;5045187;28;19913;-74
2022/10/11 14:02:38;;;;;;;;;;;22.80;50.00;;;;;;5044671;28;20051;-73
2022/10/11 14:05:04;;;;;;;;;;;22.70;50.00;;;;;;5031560;28;20412;-73
2022/10/11 14:07:34;;;;;;;;;;;22.70;50.20;;;;;;5028384;28;20396;-73
2022/10/11 14:10:00;;;;;;;;;;;22.70;50.30;;;;;;5026372;28;19921;-74
2022/10/11 14:12:25;;;;;;;;;;;22.60;50.30;;;;;;5028859;28;19913;-73
2022/10/11 14:14:51;;;;;;;;;;;22.60;50.40;;;;;;5046588;28;19917;-75
2022/10/11 14:17:17;;;;;;;;;;;22.50;50.40;;;;;;5047546;28;20054;-73
2022/10/11 14:19:43;;;;;;;;;;;22.50;50.60;;;;;;5026740;28;19920;-73
2022/10/11 14:22:11;;;;;;;;;;;22.50;50.60;;;;;;5044799;28;19913;-73